ENBR/BGO METAR and TAF weather

Enter ICAO airport designator
Station Type Date Time Source
ENBR METAR 2022/01/29 09:20 UTC NOAA

ENBR 290920Z 24023G33KT 6000 RADZ SCT003 BKN006 08/08 Q0984 TEMPO 23035G50KT 2000 RADZ BR OVC003 RMK WIND 1200FT 25039G52KT


Station Type Date Time Source
ENBR Decoded METAR 2022/01/29 09:20 UTC NOAA

Bergen / Flesland, Norway (ENBR) 60-17N 005-14E 50M
Jan 29, 2022 - 04:20 AM EST / 2022.01.29 0920 UTC
Wind: from the WSW (240 degrees) at 26 MPH (23 KT) gusting to 38 MPH (33 KT):0
Visibility: 3 mile(s):0
Sky conditions: mostly cloudy
Weather: rain, drizzle
Temperature: 46 F (8 C)
Dew Point: 46 F (8 C)
Relative Humidity: 100%
Pressure (altimeter): 29.06 in. Hg (0984 hPa)
ob: ENBR 290920Z 24023G33KT 6000 RADZ SCT003 BKN006 08/08 Q0984 TEMPO 23035G50KT 2000 RADZ BR OVC003 RMK WIND 1200FT 25039G52KT
cycle: 9

Station Type Date Time Source
ENBR TAF 2022/01/29 06:57 UTC NOAA

TAF ENBR 290500Z 2906/3006 23018KT 4000 -RADZ SCT004 OVC007
TEMPO 2906/2912 1800 RADZ BR OVC003
BECMG 2906/2908 23025G38KT
TEMPO 2909/2912 23035G50KT
BECMG 2912/2915 32022G35KT 9999 -SHRA SCT015TCU BKN030
TEMPO 2913/2921 32035G50KT
TEMPO 2912/2924 4000 SHRAGS BKN010CB PROB30
TEMPO 2912/2921 TS
BECMG 2920/2922 33035G50KT
TEMPO 2921/2924 33048G65KT
BECMG 3002/3005 34025G40KT

Example: see airport list